Main page
METAR-TAF:

METAR-TAF

Airports :

MoD Boscombe Down

Boscombe Down, England

latitude: 51-10N, longitude: 001-45W, elevation: 124 m

Current weather observation

The report was made 1 hour and 7 minutes ago, at 06:50 UTC
Wind 4 kt from the North/Northwest
Temperature 1°C
Humidity 93%
Pressure 1014 hPa
Visibility: 7000 m
mist

METAR: EGDM 200650Z AUTO 34004KT 7000 BR SCT015/// 01/00 Q1014

Time: 07:57 (07:57 UTC)


TAF: missing

Weather observations and forecasts of more than 4000 airports (METAR and TAF reports).

The available stations are represented by yellow and red dots on the map.

Hover mouse over dot to see the name of the station.

Then click to see weather observations and forecasts.

To change the map : click on the green buttons with a black cross to zoom in, on the green button with a dash to zoom out, or on the green arrows for adjacent maps.


METAR-TAF: